Time;durP1;ratioP1;P1;durP2;ratioP2;P2;SDS_P1;SDS_P2;PMS_P1;PMS_P2;Temp;Humidity;BMP_temperature;BMP_pressure;BME280_temperature;BME280_humidity;BME280_pressure;Samples;Min_cycle;Max_cycle;Signal;HPM_P1;HPM_P2
2022/03/17 00:00:08;;;;;;;;;;;5.00;99.90;;;;;;6129377;23;20253;-91
2022/03/17 00:02:35;;;;;;;;;;;5.00;99.90;;;;;;6134087;23;19928;-88
2022/03/17 00:05:02;;;;;;;;;;;5.00;99.90;;;;;;6138155;23;19921;-86
2022/03/17 00:07:29;;;;;;;;;;;5.00;99.90;;;;;;6135756;23;19921;-91
2022/03/17 00:09:56;;;;;;;;;;;5.00;99.90;;;;;;6130699;23;19921;-89
2022/03/17 00:12:25;;;;;;;;;;;4.90;99.90;;;;;;6130673;23;19921;-89
2022/03/17 00:14:51;;;;;;;;;;;4.90;99.90;;;;;;6129591;23;19928;-90
2022/03/17 00:17:18;;;;;;;;;;;5.00;99.90;;;;;;6128851;23;19931;-89
2022/03/17 00:19:45;;;;;;;;;;;5.00;99.90;;;;;;6129070;23;20285;-88
2022/03/17 00:22:15;;;;;;;;;;;5.00;99.90;;;;;;6129222;23;19944;-90
2022/03/17 00:24:42;;;;;;;;;;;4.90;99.90;;;;;;6129879;23;19976;-90
2022/03/17 00:27:12;;;;;;;;;;;4.90;99.90;;;;;;6129090;23;19925;-90
2022/03/17 00:29:41;;;;;;;;;;;5.00;99.90;;;;;;6129029;23;19921;-89
2022/03/17 00:32:08;;;;;;;;;;;4.90;99.90;;;;;;6128917;23;19993;-90
2022/03/17 00:35:35;;;;;;;;;;;4.90;99.90;;;;;;6129298;23;19921;-90
2022/03/17 00:37:24;;;;;;;;;;;4.90;99.90;;;;;;6128610;23;19927;-90
2022/03/17 00:39:51;;;;;;;;;;;4.80;99.90;;;;;;6129753;23;19972;-89
2022/03/17 00:42:18;;;;;;;;;;;4.80;99.90;;;;;;6131467;23;19925;-89
2022/03/17 00:44:47;;;;;;;;;;;4.80;99.90;;;;;;6130297;23;20337;-89
2022/03/17 00:47:14;;;;;;;;;;;4.80;99.90;;;;;;6129360;23;19924;-89
2022/03/17 00:49:41;;;;;;;;;;;4.70;99.90;;;;;;6129107;23;19920;-89
2022/03/17 00:52:11;;;;;;;;;;;4.70;99.90;;;;;;6128940;23;19925;-90
2022/03/17 00:54:39;;;;;;;;;;;4.70;99.90;;;;;;6128990;23;19927;-89
2022/03/17 00:57:05;;;;;;;;;;;4.70;99.90;;;;;;6128528;23;19921;-89
2022/03/17 00:59:32;;;;;;;;;;;4.70;99.90;;;;;;6128864;23;19976;-89
2022/03/17 01:02:01;;;;;;;;;;;4.60;99.90;;;;;;6128970;23;19921;-89
2022/03/17 01:04:27;;;;;;;;;;;4.70;99.90;;;;;;6128811;23;19968;-89
2022/03/17 01:06:56;;;;;;;;;;;4.60;99.90;;;;;;6128621;23;19921;-89
2022/03/17 01:09:23;;;;;;;;;;;4.60;99.90;;;;;;6128553;23;19921;-89
2022/03/17 01:11:50;;;;;;;;;;;4.60;99.90;;;;;;6128624;23;19937;-89
2022/03/17 01:14:17;;;;;;;;;;;4.60;99.90;;;;;;6127933;23;19920;-90
2022/03/17 01:16:44;;;;;;;;;;;4.60;99.90;;;;;;6128887;23;20234;-90
2022/03/17 01:19:12;;;;;;;;;;;6.80;99.90;;;;;;6128209;23;19972;-90
2022/03/17 01:21:39;;;;;;;;;;;4.50;99.90;;;;;;6128850;23;19924;-90
2022/03/17 01:24:06;;;;;;;;;;;4.50;99.90;;;;;;6128495;23;19921;-90
2022/03/17 01:26:33;;;;;;;;;;;4.40;99.90;;;;;;6128404;23;19921;-90
2022/03/17 01:29:00;;;;;;;;;;;4.40;99.90;;;;;;6128546;23;20289;-91
2022/03/17 01:31:26;;;;;;;;;;;4.40;99.90;;;;;;6128296;23;19921;-90
2022/03/17 01:33:54;;;;;;;;;;;4.40;99.90;;;;;;6128679;23;19921;-90
2022/03/17 01:36:22;;;;;;;;;;;4.40;99.90;;;;;;6128474;23;20249;-91
2022/03/17 01:38:49;;;;;;;;;;;4.30;99.90;;;;;;6128082;23;19925;-91
2022/03/17 01:41:15;;;;;;;;;;;4.30;99.90;;;;;;6128389;23;19921;-91
2022/03/17 01:43:43;;;;;;;;;;;4.30;99.90;;;;;;6127827;23;19921;-90
2022/03/17 01:46:11;;;;;;;;;;;4.30;99.90;;;;;;6127904;23;19980;-87
2022/03/17 01:48:38;;;;;;;;;;;4.30;99.90;;;;;;6128080;23;20369;-91
2022/03/17 01:51:05;;;;;;;;;;;4.20;99.90;;;;;;6128105;23;19976;-89
2022/03/17 01:53:33;;;;;;;;;;;4.30;99.90;;;;;;6128288;23;19921;-90
2022/03/17 01:56:00;;;;;;;;;;;4.20;99.90;;;;;;6128337;23;19921;-90
2022/03/17 01:58:27;;;;;;;;;;;4.20;99.90;;;;;;6127794;23;19921;-88
2022/03/17 02:00:54;;;;;;;;;;;4.20;99.90;;;;;;6128184;23;19925;-90
2022/03/17 02:03:21;;;;;;;;;;;4.20;99.90;;;;;;6128169;23;19921;-90
2022/03/17 02:05:48;;;;;;;;;;;4.10;99.90;;;;;;6128318;23;20376;-90
2022/03/17 02:08:15;;;;;;;;;;;4.10;99.90;;;;;;6128107;23;19921;-90
2022/03/17 02:13:40;;;;;;;;;;;3.20;99.90;;;;;;6010083;23;19922;-90
2022/03/17 02:16:07;;;;;;;;;;;4.10;99.90;;;;;;6100157;23;19968;-90
2022/03/17 02:18:34;;;;;;;;;;;4.10;99.90;;;;;;6127503;23;19921;-90
2022/03/17 02:21:01;;;;;;;;;;;4.10;99.90;;;;;;6127836;23;19921;-90
2022/03/17 02:26:13;;;;;;;;;;;4.10;99.90;;;;;;6127514;23;20014;-89
2022/03/17 02:28:40;;;;;;;;;;;4.00;99.90;;;;;;6128357;23;20297;-90
2022/03/17 02:31:09;;;;;;;;;;;3.90;99.90;;;;;;6127316;23;19920;-90
2022/03/17 02:33:38;;;;;;;;;;;3.90;99.90;;;;;;6128011;23;20003;-89
2022/03/17 02:36:05;;;;;;;;;;;3.70;99.90;;;;;;6128043;23;19956;-88
2022/03/17 02:38:33;;;;;;;;;;;3.80;99.90;;;;;;6126941;23;19932;-90
2022/03/17 02:41:03;;;;;;;;;;;3.80;99.90;;;;;;6128078;23;19968;-89
2022/03/17 02:43:29;;;;;;;;;;;3.80;99.90;;;;;;6127884;23;19957;-90
2022/03/17 02:45:56;;;;;;;;;;;3.70;99.90;;;;;;6128124;23;20329;-89
2022/03/17 02:48:23;;;;;;;;;;;3.60;99.90;;;;;;6128049;23;19992;-89
2022/03/17 02:50:50;;;;;;;;;;;3.60;99.90;;;;;;6127495;23;19921;-89
2022/03/17 02:53:18;;;;;;;;;;;3.50;99.90;;;;;;6128010;23;19943;-89
2022/03/17 02:55:46;;;;;;;;;;;3.50;99.90;;;;;;6127886;23;19924;-90
2022/03/17 02:58:13;;;;;;;;;;;3.40;99.90;;;;;;6127677;23;19928;-90
2022/03/17 03:00:40;;;;;;;;;;;3.40;99.90;;;;;;6128168;23;19984;-90
2022/03/17 03:03:07;;;;;;;;;;;3.30;99.90;;;;;;6128117;23;19921;-91
2022/03/17 03:05:34;;;;;;;;;;;3.40;99.90;;;;;;6127765;23;19921;-90
2022/03/17 03:08:02;;;;;;;;;;;3.30;99.90;;;;;;6128305;23;19921;-90
2022/03/17 03:10:29;;;;;;;;;;;3.30;99.90;;;;;;6127751;23;19992;-89
2022/03/17 03:12:57;;;;;;;;;;;3.30;99.90;;;;;;6127409;23;19921;-90
2022/03/17 03:15:24;;;;;;;;;;;3.30;99.90;;;;;;6128106;23;19921;-90
2022/03/17 03:17:50;;;;;;;;;;;3.30;99.90;;;;;;6127256;23;19921;-89
2022/03/17 03:20:17;;;;;;;;;;;3.30;99.90;;;;;;6128227;23;19921;-90
2022/03/17 03:22:44;;;;;;;;;;;3.20;99.90;;;;;;6128005;23;19921;-92
2022/03/17 03:25:11;;;;;;;;;;;3.20;99.90;;;;;;6127931;23;19921;-90
2022/03/17 03:27:39;;;;;;;;;;;3.20;99.90;;;;;;6127621;23;20009;-90
2022/03/17 03:30:09;;;;;;;;;;;3.10;99.90;;;;;;6127526;23;19924;-90
2022/03/17 03:32:37;;;;;;;;;;;3.10;99.90;;;;;;6126932;23;19943;-90
2022/03/17 03:37:22;;;;;;;;;;;3.10;99.90;;;;;;6127422;23;19924;-90
2022/03/17 03:37:51;;;;;;;;;;;3.10;99.90;;;;;;6127422;23;19921;-89
2022/03/17 03:40:17;;;;;;;;;;;3.00;99.90;;;;;;6133782;23;20222;-87
2022/03/17 03:42:44;;;;;;;;;;;3.00;99.90;;;;;;6138206;23;19928;-90
2022/03/17 03:45:13;;;;;;;;;;;3.00;99.90;;;;;;6133367;23;19983;-87
2022/03/17 03:47:40;;;;;;;;;;;3.00;99.90;;;;;;6130041;23;19925;-91
2022/03/17 03:50:07;;;;;;;;;;;2.90;99.90;;;;;;6130179;23;19931;-89
2022/03/17 03:52:35;;;;;;;;;;;2.90;99.90;;;;;;6129871;23;20392;-89
2022/03/17 03:55:02;;;;;;;;;;;2.90;99.90;;;;;;6128741;23;19920;-89
2022/03/17 03:57:29;;;;;;;;;;;2.90;99.90;;;;;;6129277;23;19925;-88
2022/03/17 03:59:56;;;;;;;;;;;2.80;99.90;;;;;;6128896;23;19963;-90
2022/03/17 04:02:27;;;;;;;;;;;2.80;99.90;;;;;;6129504;23;19926;-88
2022/03/17 04:04:53;;;;;;;;;;;2.80;99.90;;;;;;6129015;23;19920;-88
2022/03/17 04:07:20;;;;;;;;;;;2.80;99.90;;;;;;6129090;23;20392;-89
2022/03/17 04:09:47;;;;;;;;;;;2.80;99.90;;;;;;6128702;23;20335;-88
2022/03/17 04:12:15;;;;;;;;;;;2.80;99.90;;;;;;6129218;23;20252;-90
2022/03/17 04:14:42;;;;;;;;;;;2.80;99.90;;;;;;6129067;23;19987;-89
2022/03/17 04:17:08;;;;;;;;;;;2.70;99.90;;;;;;6129218;23;19921;-90
2022/03/17 04:19:37;;;;;;;;;;;2.70;99.90;;;;;;6129238;23;19921;-90
2022/03/17 04:22:04;;;;;;;;;;;2.70;99.90;;;;;;6128845;23;19921;-89
2022/03/17 04:24:31;;;;;;;;;;;2.70;99.90;;;;;;6128987;23;20004;-89
2022/03/17 04:26:58;;;;;;;;;;;2.60;99.90;;;;;;6129214;23;20229;-89
2022/03/17 04:29:25;;;;;;;;;;;2.60;99.90;;;;;;6128895;23;19944;-90
2022/03/17 04:31:53;;;;;;;;;;;2.60;99.90;;;;;;6129362;23;19928;-89
2022/03/17 04:34:20;;;;;;;;;;;2.60;99.90;;;;;;6129224;23;19925;-88
2022/03/17 04:36:48;;;;;;;;;;;2.60;99.90;;;;;;6129030;23;19921;-89
2022/03/17 04:39:15;;;;;;;;;;;2.60;99.90;;;;;;6128386;23;20293;-89
2022/03/17 04:41:42;;;;;;;;;;;2.50;99.90;;;;;;6129247;23;19921;-89
2022/03/17 04:44:09;;;;;;;;;;;2.50;99.90;;;;;;6128198;23;19920;-88
2022/03/17 04:46:36;;;;;;;;;;;2.40;99.90;;;;;;6129054;23;19921;-90
2022/03/17 04:49:03;;;;;;;;;;;2.40;99.90;;;;;;6128596;23;19978;-90
2022/03/17 04:51:31;;;;;;;;;;;2.40;99.90;;;;;;6128969;23;19921;-89
2022/03/17 04:53:59;;;;;;;;;;;2.40;99.90;;;;;;6129102;23;19921;-90
2022/03/17 04:56:26;;;;;;;;;;;2.40;99.90;;;;;;6128358;23;20076;-90
2022/03/17 04:58:53;;;;;;;;;;;2.30;99.90;;;;;;6129129;23;19928;-90
2022/03/17 05:01:20;;;;;;;;;;;2.30;99.90;;;;;;6128893;23;19972;-89
2022/03/17 05:03:46;;;;;;;;;;;2.40;99.90;;;;;;6129135;23;19943;-89
2022/03/17 05:06:14;;;;;;;;;;;2.30;99.90;;;;;;6129037;23;19924;-88
2022/03/17 05:08:42;;;;;;;;;;;2.30;99.90;;;;;;6128810;23;19925;-89
2022/03/17 05:11:10;;;;;;;;;;;2.30;99.90;;;;;;6128667;23;19921;-88
2022/03/17 05:13:39;;;;;;;;;;;2.30;99.90;;;;;;6128670;23;19996;-91
2022/03/17 05:16:06;;;;;;;;;;;2.20;99.90;;;;;;6129088;23;20388;-88
2022/03/17 05:18:35;;;;;;;;;;;2.20;99.90;;;;;;6128645;23;19967;-89
2022/03/17 05:21:02;;;;;;;;;;;2.20;99.90;;;;;;6128399;23;20329;-90
2022/03/17 05:23:30;;;;;;;;;;;2.20;99.90;;;;;;6128813;23;19921;-87
2022/03/17 05:25:58;;;;;;;;;;;2.20;99.90;;;;;;6128443;23;20333;-90
2022/03/17 05:28:27;;;;;;;;;;;2.20;99.90;;;;;;6128464;23;19920;-89
2022/03/17 05:30:53;;;;;;;;;;;2.00;99.90;;;;;;6129168;23;19945;-89
2022/03/17 05:33:21;;;;;;;;;;;2.20;99.90;;;;;;6128972;23;19948;-87
2022/03/17 05:35:51;;;;;;;;;;;2.20;99.90;;;;;;6129137;23;19928;-89
2022/03/17 05:38:17;;;;;;;;;;;2.20;99.90;;;;;;6129549;23;19928;-89
2022/03/17 05:40:45;;;;;;;;;;;2.30;99.90;;;;;;6128880;23;19920;-89
2022/03/17 05:43:14;;;;;;;;;;;2.30;99.90;;;;;;6127750;23;22554;-89
2022/03/17 05:45:43;;;;;;;;;;;2.30;99.90;;;;;;6128869;23;20403;-89
2022/03/17 05:48:10;;;;;;;;;;;2.30;99.90;;;;;;6128692;23;20008;-89
2022/03/17 05:50:38;;;;;;;;;;;2.30;99.90;;;;;;6128569;23;19928;-90
2022/03/17 05:53:06;;;;;;;;;;;2.30;99.90;;;;;;6129530;23;19921;-90
2022/03/17 05:55:32;;;;;;;;;;;2.30;99.90;;;;;;6129245;23;19960;-89
2022/03/17 05:58:00;;;;;;;;;;;2.30;99.90;;;;;;6129064;23;19977;-90
2022/03/17 06:00:27;;;;;;;;;;;6.00;99.90;;;;;;6128827;23;19961;-91
2022/03/17 06:02:58;;;;;;;;;;;2.30;99.90;;;;;;6128693;23;19960;-89
2022/03/17 06:05:25;;;;;;;;;;;2.30;99.90;;;;;;6128572;23;19921;-90
2022/03/17 06:07:53;;;;;;;;;;;2.40;99.90;;;;;;6128513;23;19921;-89
2022/03/17 06:10:22;;;;;;;;;;;2.40;99.90;;;;;;6129384;23;19932;-89
2022/03/17 06:12:51;;;;;;;;;;;2.40;99.90;;;;;;6129611;23;19921;-90
2022/03/17 06:15:18;;;;;;;;;;;2.40;99.90;;;;;;6128994;23;19957;-90
2022/03/17 06:17:47;;;;;;;;;;;2.40;99.90;;;;;;6128345;23;19927;-88
2022/03/17 06:20:16;;;;;;;;;;;2.40;99.90;;;;;;6128543;23;19921;-89
2022/03/17 06:22:44;;;;;;;;;;;2.50;99.90;;;;;;6128847;23;19920;-89
2022/03/17 06:25:13;;;;;;;;;;;2.40;99.90;;;;;;6129720;23;20308;-89
2022/03/17 06:27:41;;;;;;;;;;;2.40;99.90;;;;;;6129067;23;19962;-90
2022/03/17 06:30:09;;;;;;;;;;;2.30;99.90;;;;;;6129031;23;19928;-90
2022/03/17 06:32:38;;;;;;;;;;;2.40;99.90;;;;;;6129333;23;19921;-88
2022/03/17 06:35:08;;;;;;;;;;;2.30;99.90;;;;;;6129618;23;19921;-89
2022/03/17 06:37:36;;;;;;;;;;;0.40;99.90;;;;;;6128460;23;20379;-89
2022/03/17 06:40:03;;;;;;;;;;;2.30;99.90;;;;;;6128693;23;19921;-90
2022/03/17 06:42:32;;;;;;;;;;;2.30;99.90;;;;;;6128435;23;19921;-88
2022/03/17 06:44:59;;;;;;;;;;;2.20;99.90;;;;;;6128958;23;19921;-87
2022/03/17 06:47:26;;;;;;;;;;;2.20;99.90;;;;;;6129148;23;19921;-89
2022/03/17 06:49:52;;;;;;;;;;;2.20;99.90;;;;;;6128596;23;19972;-89
2022/03/17 06:52:20;;;;;;;;;;;2.20;99.90;;;;;;6129613;23;20273;-89
2022/03/17 06:54:48;;;;;;;;;;;2.40;99.90;;;;;;6128714;23;19921;-89
2022/03/17 06:57:16;;;;;;;;;;;2.40;99.90;;;;;;6128649;23;19924;-90
2022/03/17 06:59:43;;;;;;;;;;;2.50;99.90;;;;;;6129353;23;19964;-91
2022/03/17 07:02:10;;;;;;;;;;;2.50;99.90;;;;;;6131433;23;20364;-88
2022/03/17 07:04:37;;;;;;;;;;;2.70;99.90;;;;;;6128401;23;20227;-89
2022/03/17 07:07:04;;;;;;;;;;;2.90;99.90;;;;;;6128551;23;19921;-88
2022/03/17 07:09:32;;;;;;;;;;;2.90;99.90;;;;;;6128407;23;20655;-90
2022/03/17 07:12:00;;;;;;;;;;;2.80;99.90;;;;;;6128387;23;19921;-90
2022/03/17 07:14:27;;;;;;;;;;;2.80;99.90;;;;;;6136262;23;19961;-86
2022/03/17 07:16:54;;;;;;;;;;;2.80;99.90;;;;;;6140054;23;19921;-86
2022/03/17 07:19:22;;;;;;;;;;;3.00;99.90;;;;;;6132941;23;19930;-89
2022/03/17 07:21:49;;;;;;;;;;;3.00;99.90;;;;;;6130974;23;19925;-89
2022/03/17 07:24:16;;;;;;;;;;;3.10;99.90;;;;;;6131954;23;19928;-90
2022/03/17 07:26:43;;;;;;;;;;;3.20;99.90;;;;;;6131692;23;19921;-90
2022/03/17 07:29:12;;;;;;;;;;;3.30;99.90;;;;;;6131338;23;20360;-89
2022/03/17 07:31:39;;;;;;;;;;;3.30;99.90;;;;;;6132900;23;19920;-88
2022/03/17 07:34:09;;;;;;;;;;;3.50;99.90;;;;;;6131817;23;19921;-90
2022/03/17 07:36:35;;;;;;;;;;;3.70;99.90;;;;;;6132241;23;19927;-89
2022/03/17 07:39:03;;;;;;;;;;;3.70;99.90;;;;;;6129605;23;19920;-89
2022/03/17 07:41:30;;;;;;;;;;;3.80;99.90;;;;;;6131684;23;19921;-89
2022/03/17 07:43:57;;;;;;;;;;;3.80;99.90;;;;;;6131400;23;19955;-89
2022/03/17 07:46:26;;;;;;;;;;;3.90;99.90;;;;;;6133102;23;19944;-90
2022/03/17 07:48:55;;;;;;;;;;;4.00;99.90;;;;;;6133618;23;19944;-89
2022/03/17 07:51:23;;;;;;;;;;;4.20;99.90;;;;;;6132876;23;20302;-89
2022/03/17 07:53:50;;;;;;;;;;;4.20;99.90;;;;;;6133825;23;19920;-91
2022/03/17 07:56:18;;;;;;;;;;;4.40;99.90;;;;;;6130019;23;19921;-89
2022/03/17 07:58:45;;;;;;;;;;;4.50;99.90;;;;;;6131658;23;19921;-88
2022/03/17 08:01:12;;;;;;;;;;;4.60;99.90;;;;;;6131571;23;20280;-88
2022/03/17 08:03:42;;;;;;;;;;;4.60;99.90;;;;;;6134257;23;19921;-87
2022/03/17 08:06:10;;;;;;;;;;;4.70;99.90;;;;;;6131953;23;19921;-90
2022/03/17 08:08:37;;;;;;;;;;;4.70;99.90;;;;;;6133727;23;19921;-89
2022/03/17 08:11:04;;;;;;;;;;;4.80;99.90;;;;;;6132346;23;19921;-92
2022/03/17 08:13:31;;;;;;;;;;;4.80;99.90;;;;;;6133973;23;19921;-89
2022/03/17 08:15:58;;;;;;;;;;;4.90;99.90;;;;;;6131576;23;19968;-90
2022/03/17 08:18:25;;;;;;;;;;;4.90;99.90;;;;;;6130625;23;19921;-90
2022/03/17 08:20:53;;;;;;;;;;;5.00;99.90;;;;;;6131976;23;20031;-89
2022/03/17 08:23:22;;;;;;;;;;;5.10;99.90;;;;;;6131215;23;20055;-90
2022/03/17 08:25:50;;;;;;;;;;;5.30;99.90;;;;;;6129505;23;19928;-89
2022/03/17 08:28:18;;;;;;;;;;;7.00;99.90;;;;;;6131982;23;19925;-90
2022/03/17 08:30:49;;;;;;;;;;;5.40;99.90;;;;;;6134255;23;19968;-92
2022/03/17 08:33:17;;;;;;;;;;;7.20;99.90;;;;;;6134580;23;19925;-90
2022/03/17 08:35:44;;;;;;;;;;;5.70;99.90;;;;;;6130826;23;20433;-89
2022/03/17 08:38:17;;;;;;;;;;;5.80;99.90;;;;;;6131875;23;20308;-90
2022/03/17 08:40:44;;;;;;;;;;;5.90;99.90;;;;;;6132342;23;19968;-89
2022/03/17 08:43:12;;;;;;;;;;;6.00;99.90;;;;;;6131241;23;19935;-90
2022/03/17 08:51:10;;;;;;;;;;;6.20;99.90;;;;;;6128349;23;19971;-87
2022/03/17 08:53:38;;;;;;;;;;;6.30;99.90;;;;;;6129917;23;19945;-87
2022/03/17 08:56:06;;;;;;;;;;;6.40;99.90;;;;;;6129046;23;20392;-88
2022/03/17 08:58:35;;;;;;;;;;;6.50;99.90;;;;;;6132169;23;20000;-87
2022/03/17 09:01:04;;;;;;;;;;;6.60;99.90;;;;;;6133931;23;19928;-90
2022/03/17 09:03:32;;;;;;;;;;;6.70;99.90;;;;;;6128133;23;20016;-86
2022/03/17 09:06:00;;;;;;;;;;;6.70;99.90;;;;;;6130561;23;19984;-85
2022/03/17 09:08:27;;;;;;;;;;;6.80;99.90;;;;;;6129393;23;20403;-89
2022/03/17 09:11:13;;;;;;;;;;;6.90;99.90;;;;;;6128964;23;20348;-88
2022/03/17 09:13:46;;;;;;;;;;;6.90;99.90;;;;;;6132712;23;19928;-89
2022/03/17 09:16:13;;;;;;;;;;;7.00;99.90;;;;;;6129136;23;19921;-88
2022/03/17 09:18:42;;;;;;;;;;;7.10;99.90;;;;;;6127662;23;20001;-88
2022/03/17 09:21:11;;;;;;;;;;;7.20;99.90;;;;;;6125991;23;20337;-89
2022/03/17 09:23:45;;;;;;;;;;;7.20;99.90;;;;;;6128301;23;19921;-91
2022/03/17 09:26:12;;;;;;;;;;;7.30;99.90;;;;;;6126950;23;20296;-90
2022/03/17 09:28:39;;;;;;;;;;;7.50;99.90;;;;;;6095559;23;19999;-90
2022/03/17 09:31:08;;;;;;;;;;;7.50;99.90;;;;;;6128385;23;19940;-90
2022/03/17 09:33:35;;;;;;;;;;;7.60;99.90;;;;;;6126958;23;19963;-90
2022/03/17 09:36:02;;;;;;;;;;;7.60;99.90;;;;;;6126889;23;19928;-87
2022/03/17 09:38:31;;;;;;;;;;;7.70;99.90;;;;;;6128752;23;19928;-88
2022/03/17 09:41:23;;;;;;;;;;;7.90;99.90;;;;;;6129405;23;19921;-92
2022/03/17 09:44:14;;;;;;;;;;;8.00;99.90;;;;;;6122733;23;19921;-91
2022/03/17 09:46:43;;;;;;;;;;;8.20;99.90;;;;;;6127521;23;19932;-91
2022/03/17 09:49:10;;;;;;;;;;;8.30;99.90;;;;;;6128053;23;19921;-91
2022/03/17 09:51:42;;;;;;;;;;;8.30;99.90;;;;;;6127973;23;19976;-89
2022/03/17 09:54:10;;;;;;;;;;;8.30;99.90;;;;;;6128130;23;20354;-90
2022/03/17 09:56:38;;;;;;;;;;;8.40;99.90;;;;;;6121096;23;20415;-88
2022/03/17 09:59:07;;;;;;;;;;;8.40;99.90;;;;;;6128171;23;19925;-90
2022/03/17 10:01:35;;;;;;;;;;;8.40;99.90;;;;;;6128148;23;19927;-89
2022/03/17 10:04:10;;;;;;;;;;;8.40;99.90;;;;;;6127512;23;19928;-88
2022/03/17 10:06:43;;;;;;;;;;;8.60;99.90;;;;;;6126984;23;20248;-89
2022/03/17 10:09:11;;;;;;;;;;;8.70;99.90;;;;;;6126962;23;19921;-88
2022/03/17 10:11:40;;;;;;;;;;;8.80;99.90;;;;;;6127359;23;19928;-89
2022/03/17 10:14:09;;;;;;;;;;;8.80;99.90;;;;;;6127283;23;20349;-90
2022/03/17 10:16:51;;;;;;;;;;;8.80;99.90;;;;;;6128156;23;19921;-89
2022/03/17 10:19:31;;;;;;;;;;;8.00;99.90;;;;;;6128199;23;20364;-89
2022/03/17 10:22:08;;;;;;;;;;;9.00;99.90;;;;;;6127477;23;19921;-89
2022/03/17 10:24:39;;;;;;;;;;;9.00;99.90;;;;;;6126665;23;19924;-90
2022/03/17 10:27:10;;;;;;;;;;;9.10;99.90;;;;;;6127531;23;20008;-87
2022/03/17 10:29:40;;;;;;;;;;;9.10;99.90;;;;;;6126978;23;19924;-90
2022/03/17 10:32:09;;;;;;;;;;;9.20;99.90;;;;;;6127993;23;20026;-90
2022/03/17 10:34:55;;;;;;;;;;;9.40;99.90;;;;;;6127087;23;20324;-89
2022/03/17 10:37:24;;;;;;;;;;;9.50;99.90;;;;;;6128595;23;19921;-89
2022/03/17 10:42:36;;;;;;;;;;;9.60;99.90;;;;;;6124197;23;20000;-90
2022/03/17 10:45:05;;;;;;;;;;;9.70;99.90;;;;;;6129105;23;19928;-88
2022/03/17 10:48:00;;;;;;;;;;;9.60;99.90;;;;;;6134810;23;19925;-88
2022/03/17 10:50:42;;;;;;;;;;;9.70;99.90;;;;;;6129774;23;19927;-90
2022/03/17 10:53:09;;;;;;;;;;;9.90;99.90;;;;;;6127675;23;19927;-88
2022/03/17 10:55:37;;;;;;;;;;;10.00;99.90;;;;;;6129501;23;19920;-89
2022/03/17 10:58:14;;;;;;;;;;;10.20;99.90;;;;;;6128751;23;20284;-90
2022/03/17 11:00:48;;;;;;;;;;;10.30;99.90;;;;;;6128475;23;19932;-90
2022/03/17 11:03:21;;;;;;;;;;;10.40;99.90;;;;;;6128994;23;19925;-88
2022/03/17 11:05:53;;;;;;;;;;;10.40;99.90;;;;;;6129145;23;20344;-89
2022/03/17 11:08:24;;;;;;;;;;;10.30;99.90;;;;;;6129039;23;19927;-90
2022/03/17 11:10:51;;;;;;;;;;;10.40;99.90;;;;;;6129981;23;20024;-90
2022/03/17 11:13:24;;;;;;;;;;;10.50;99.90;;;;;;6129634;23;19968;-88
2022/03/17 11:15:58;;;;;;;;;;;10.60;99.90;;;;;;6131236;23;19976;-86
2022/03/17 11:18:26;;;;;;;;;;;10.80;99.90;;;;;;6129347;23;19983;-89
2022/03/17 11:21:10;;;;;;;;;;;10.90;99.90;;;;;;6128502;23;19925;-89
2022/03/17 11:23:54;;;;;;;;;;;10.90;99.90;;;;;;6129855;23;20396;-90
2022/03/17 11:26:25;;;;;;;;;;;11.10;99.90;;;;;;6129430;23;19925;-88
2022/03/17 11:28:58;;;;;;;;;;;11.00;99.90;;;;;;6129463;23;20049;-89
2022/03/17 11:31:30;;;;;;;;;;;11.10;99.90;;;;;;6128425;23;20260;-88
2022/03/17 11:34:03;;;;;;;;;;;11.30;99.90;;;;;;6128215;23;19921;-88
2022/03/17 11:36:31;;;;;;;;;;;11.30;99.90;;;;;;6129868;23;19921;-89
2022/03/17 11:39:19;;;;;;;;;;;11.40;99.90;;;;;;6130165;23;19925;-90
2022/03/17 11:41:48;;;;;;;;;;;11.50;99.90;;;;;;6130452;23;19967;-89
2022/03/17 11:44:31;;;;;;;;;;;11.70;99.90;;;;;;6128216;23;19948;-88
2022/03/17 11:46:58;;;;;;;;;;;11.80;99.90;;;;;;6128495;23;19921;-89
2022/03/17 11:49:26;;;;;;;;;;;11.90;99.90;;;;;;6128907;23;19928;-86
2022/03/17 11:51:54;;;;;;;;;;;11.70;99.90;;;;;;6129438;23;20264;-90
2022/03/17 11:54:23;;;;;;;;;;;11.70;99.90;;;;;;6128768;23;19920;-88
2022/03/17 11:56:53;;;;;;;;;;;11.80;99.90;;;;;;6127896;23;19927;-90
2022/03/17 11:59:27;;;;;;;;;;;11.60;99.90;;;;;;6128348;23;19928;-90
2022/03/17 12:02:16;;;;;;;;;;;12.40;99.90;;;;;;6127756;23;19920;-91
2022/03/17 12:04:54;;;;;;;;;;;13.00;99.90;;;;;;6130206;23;19928;-90
2022/03/17 12:07:30;;;;;;;;;;;11.60;99.90;;;;;;6127508;23;20368;-88
2022/03/17 12:10:11;;;;;;;;;;;11.40;99.90;;;;;;6127578;23;19933;-89
2022/03/17 12:12:40;;;;;;;;;;;10.80;99.90;;;;;;6127334;23;19940;-90
2022/03/17 12:15:20;;;;;;;;;;;;;;;;;;;;;
2022/03/17 12:18:08;;;;;;;;;;;11.40;99.90;;;;;;6128426;23;20004;-90
2022/03/17 12:20:46;;;;;;;;;;;11.40;99.90;;;;;;6128325;23;19949;-90
2022/03/17 12:23:29;;;;;;;;;;;11.40;99.90;;;;;;6126886;23;20032;-89
2022/03/17 12:26:19;;;;;;;;;;;11.40;99.90;;;;;;6126325;23;20304;-90
2022/03/17 12:28:48;;;;;;;;;;;11.50;99.90;;;;;;6126438;23;19925;-89
2022/03/17 12:31:15;;;;;;;;;;;11.50;99.90;;;;;;6129345;23;20292;-90
2022/03/17 12:34:03;;;;;;;;;;;11.50;99.90;;;;;;6128862;23;19921;-91
2022/03/17 12:36:34;;;;;;;;;;;12.30;99.90;;;;;;6127381;23;19947;-89
2022/03/17 12:39:21;;;;;;;;;;;8.00;99.90;;;;;;6128577;23;20035;-90
2022/03/17 12:41:48;;;;;;;;;;;11.90;99.90;;;;;;6127483;23;19921;-89
2022/03/17 12:44:32;;;;;;;;;;;12.10;99.90;;;;;;6127755;23;19980;-89
2022/03/17 12:47:14;;;;;;;;;;;12.30;99.90;;;;;;6127279;23;19925;-89
2022/03/17 12:49:42;;;;;;;;;;;12.20;99.90;;;;;;6127866;23;19924;-89
2022/03/17 12:52:27;;;;;;;;;;;13.20;99.90;;;;;;6128259;23;20378;-89
2022/03/17 12:54:57;;;;;;;;;;;12.20;99.90;;;;;;6128597;23;20004;-88
2022/03/17 12:57:25;;;;;;;;;;;12.00;99.90;;;;;;6127319;23;19975;-89
2022/03/17 12:59:53;;;;;;;;;;;12.00;99.90;;;;;;6128029;23;19964;-88
2022/03/17 13:02:21;;;;;;;;;;;12.10;99.90;;;;;;6129378;23;19920;-87
2022/03/17 13:04:53;;;;;;;;;;;12.10;99.90;;;;;;6128717;23;19928;-86
2022/03/17 13:07:22;;;;;;;;;;;12.20;99.90;;;;;;6130507;23;19972;-90
2022/03/17 13:10:05;;;;;;;;;;;12.20;99.90;;;;;;6128557;23;20004;-90
2022/03/17 13:15:26;;;;;;;;;;;12.20;99.90;;;;;;6083299;23;19988;-91
2022/03/17 13:18:01;;;;;;;;;;;12.30;99.90;;;;;;6127787;23;19964;-90
2022/03/17 13:26:01;;;;;;;;;;;12.10;99.90;;;;;;6132658;23;20000;-86
2022/03/17 13:28:28;;;;;;;;;;;12.10;99.90;;;;;;6131394;23;19927;-88
2022/03/17 13:31:03;;;;;;;;;;;13.40;99.90;;;;;;6132693;23;19925;-92
2022/03/17 13:34:07;;;;;;;;;;;12.50;99.90;;;;;;6130606;23;19920;-91
2022/03/17 13:37:00;;;;;;;;;;;12.60;99.90;;;;;;6129555;23;19925;-91
2022/03/17 13:39:32;;;;;;;;;;;12.70;99.90;;;;;;6126937;23;20004;-90
2022/03/17 13:42:05;;;;;;;;;;;12.90;99.90;;;;;;6127723;23;20249;-92
2022/03/17 13:44:45;;;;;;;;;;;12.70;99.90;;;;;;6128747;23;19928;-92
2022/03/17 13:47:15;;;;;;;;;;;12.80;99.90;;;;;;6131083;23;20004;-89
2022/03/17 13:49:42;;;;;;;;;;;12.80;99.90;;;;;;6129593;23;19921;-90
2022/03/17 13:52:11;;;;;;;;;;;12.90;99.90;;;;;;6130418;23;19951;-89
2022/03/17 13:54:41;;;;;;;;;;;13.10;99.90;;;;;;6128805;23;19924;-90
2022/03/17 13:57:08;;;;;;;;;;;13.20;99.90;;;;;;6132067;23;19927;-89
2022/03/17 13:59:41;;;;;;;;;;;13.00;99.90;;;;;;6132771;23;20371;-89
2022/03/17 14:02:12;;;;;;;;;;;12.80;99.90;;;;;;6129903;23;19969;-90
2022/03/17 14:04:52;;;;;;;;;;;12.90;99.90;;;;;;6129252;23;19921;-90
2022/03/17 14:07:19;;;;;;;;;;;13.60;99.90;;;;;;6120556;23;19921;-90
2022/03/17 14:09:48;;;;;;;;;;;12.60;99.90;;;;;;6132647;23;19925;-90
2022/03/17 14:12:16;;;;;;;;;;;12.50;99.90;;;;;;6129916;23;19921;-90
2022/03/17 14:14:45;;;;;;;;;;;12.60;99.90;;;;;;6129653;23;20004;-90
2022/03/17 14:17:13;;;;;;;;;;;12.60;99.90;;;;;;6131636;23;19921;-88
2022/03/17 14:19:54;;;;;;;;;;;12.60;99.90;;;;;;6130782;23;19927;-89
2022/03/17 14:25:05;;;;;;;;;;;12.50;99.90;;;;;;6128576;23;19927;-87
2022/03/17 14:27:32;;;;;;;;;;;12.50;99.90;;;;;;6129437;23;19921;-90
2022/03/17 14:29:59;;;;;;;;;;;12.50;99.90;;;;;;6134116;23;19944;-90
2022/03/17 14:32:29;;;;;;;;;;;12.50;99.90;;;;;;6136180;23;19921;-87
2022/03/17 14:34:58;;;;;;;;;;;12.60;99.90;;;;;;6137203;23;19935;-87
2022/03/17 14:37:26;;;;;;;;;;;12.60;99.90;;;;;;6136227;23;19921;-89
2022/03/17 14:39:55;;;;;;;;;;;12.70;99.90;;;;;;6133654;23;19921;-90
2022/03/17 14:42:25;;;;;;;;;;;12.60;99.90;;;;;;6131338;23;19975;-89
2022/03/17 14:47:36;;;;;;;;;;;12.50;99.90;;;;;;6133025;23;19920;-91
2022/03/17 14:50:05;;;;;;;;;;;12.60;99.90;;;;;;6129625;23;19925;-89
2022/03/17 14:52:32;;;;;;;;;;;12.50;99.90;;;;;;6130123;23;19920;-90
2022/03/17 14:55:01;;;;;;;;;;;12.50;99.90;;;;;;6130924;23;20321;-90
2022/03/17 14:57:29;;;;;;;;;;;12.50;99.90;;;;;;6129487;23;19928;-88
2022/03/17 15:00:05;;;;;;;;;;;12.50;99.90;;;;;;6128462;23;20245;-91
2022/03/17 15:02:32;;;;;;;;;;;12.50;99.90;;;;;;6134460;23;20244;-88
2022/03/17 15:05:00;;;;;;;;;;;15.00;99.90;;;;;;6129625;23;19925;-89
2022/03/17 15:07:48;;;;;;;;;;;12.60;99.90;;;;;;6133288;23;19928;-89
2022/03/17 15:10:20;;;;;;;;;;;12.80;99.90;;;;;;6098871;23;19956;-89